首页
METAR-TAF:

METAR-TAF

机场 :

子午线, 密西西比州, 美国

纬度: 32-32-47N, 经度: 088-32-35W, 海拔: 96米

当前天气观测

该预报发布于45分钟前的19:56 UTC
风速6节,风向南转西南
温度 12°C
湿度 67%
气压 1017 hPa
能見度: 16.1公里
阴天层高于4500英尺

METAR: KNMM 261956Z 20006KT 10SM OVC045 12/06 A3004 RMK AO2 SLP185 T01170056

时间: 14:41 (20:41 UTC)

预报

预报有效从26日的 15点(UTC)到 27日的 15点(UTC)
风速6节,风向多变
能见度10公里或以上
散云层高于8000英尺
阴天层高于11000英尺
从 26日的 2000点(UTC)
风速12节,风向
能见度10公里或以上
多云层高于2000英尺
阴天层高于5000英尺
附近有阵雨
短暂存在
从 26日的 22点(UTC)到 27日的 03点(UTC)
能見度: 6000
多云层高于1500英尺
阴天层高于4000英尺
阵雨, 轻雾
从 27日的 0300点(UTC)
风速5节,风向
能見度: 2621
阴天层高于400英尺
阵雨, 轻雾

TAF: KNMM 2615/2715 VRB06KT 9999 SCT080 OVC110 QNH3010INS FM262000 19012KT 9999 VCSH BKN020 OVC050 QNH2996INS TEMPO 2622/2703 6000 SHRA BR BKN015 OVC040 FM270300 17005KT 4800 SHRA BR OVC004 QNH2996INS AUTOMATED SENSOR METWATCH 2615 TIL 2621 T10/2621Z T07/2709Z FN00189

超过4000个机场的气象观测和天气预报(METAR&TAF报告)。

可查询的气象台以黄色和红色小点在地图上表示。

将鼠标移到小点上方,可查看气象台名称。

然后点击查看天气观测和预报。

如需切换地图:点击带黑十字的绿色按钮放大地图;点击带横线的绿色按钮缩小地图;或者点击绿色箭头查看邻近地区的地图。


METAR-TAF: